• Join FlightAware (Why Join?)
  • Login
  • US Flag 
09:36AM EDT


 

Airport Tracker/Info


-or-


 

Live Flight TrackerFlight Track Log ✈ SKW6306 ✈ 17-Jun-2013 ✈ KDEN - KCOD

Flight Track Log - Related Links

Times and Time Zones

All times are in EDT time to prevent confusion due to time zone crossing. See the SKW6306 flight status page for this flight to view local times or setup timezone preferences in your user account.

Time Position Orientation Groundspeed Altitude Reporting Facility
EDT Latitude Longitude Course Direction KTS MPH feet Rate Location/Type
09:52PM 39.9167 -104.6833 11° North 181 208 6,800  Level Denver TRACON
09:53PM 39.9833 -104.6667 11° North 260 299 8,400 1,800 Climbing Denver TRACON
09:54PM 40.0667 -104.6667 360° North 296 341 10,400 2,160 Climbing Denver TRACON
09:55PM 40.1500 -104.6667 360° North 297 342 12,800 2,160 Climbing Denver TRACON
09:56PM 40.2333 -104.6667 360° North 344 396 14,800 1,740 Climbing Denver TRACON
09:57PM 40.3167 -104.7000 343° North 323 372 16,300 1,440 Climbing Denver TRACON
09:59PM 40.4342 -104.7381 346° North 348 400 17,900 1,320 Climbing Denver Center
10:00PM 40.5303 -104.7678 347° North 353 406 19,200 1,080 Climbing Denver Center
10:01PM 40.6553 -104.8094 346° North 377 434 20,500 960 Climbing Denver Center
10:02PM 40.7511 -104.8428 345° North 375 432 21,400 900 Climbing Denver Center
10:03PM 40.8553 -104.8822 344° North 386 444 22,400 1,020 Climbing Denver Center
10:04PM 40.9806 -104.9436 340° North 401 461 23,600 900 Climbing Denver Center
10:05PM 41.0789 -104.9931 339° North 404 465 24,300 660 Climbing Denver Center
10:06PM 41.1992 -105.0522 340° North 411 473 25,000 660 Climbing Denver Center
10:07PM 41.3053 -105.1044 340° North 421 484 25,700 720 Climbing Denver Center
10:08PM 41.4292 -105.1697 338° Northwest 426 490 26,500 720 Climbing Denver Center
10:09PM 41.5369 -105.2222 340° North 430 495 27,200 780 Climbing Denver Center
10:10PM 41.6442 -105.3247 324° Northwest 429 494 28,100 660 Climbing Denver Center
10:11PM 41.7297 -105.4231 319° Northwest 424 488 28,800 780 Climbing Denver Center
10:12PM 41.8442 -105.5533 320° Northwest 425 489 29,900 840 Climbing Denver Center
10:13PM 41.9292 -105.6528 319° Northwest 424 488 30,600 660 Climbing Denver Center
10:15PM 42.0264 -105.7678 319° Northwest 417 480 31,300 660 Climbing Denver Center
10:16PM 42.1106 -105.8656 319° Northwest 416 479 32,000 300 Climbing Denver Center
10:17PM 42.1947 -105.9650 319° Northwest 416 479 32,000  Level Denver Center
10:18PM 42.2967 -106.0853 319° Northwest 429 494 32,000  Level Denver Center
10:19PM 42.3836 -106.1903 318° Northwest 436 502 32,000  Level Denver Center
10:20PM 42.4894 -106.3158 319° Northwest 449 517 32,000  Level Denver Center
10:21PM 42.5792 -106.4239 318° Northwest 451 519 32,000  Level Denver Center
10:22PM 42.6833 -106.5486 319° Northwest 446 513 32,000  Level Denver Center
10:23PM 42.7733 -106.6558 319° Northwest 449 517 32,000  Level Denver Center
10:24PM 42.8767 -106.7831 318° Northwest 448 516 32,000  Level Denver Center
10:25PM 42.9939 -106.9283 318° Northwest 443 510 32,000  Level Salt Lake Center
10:26PM 43.0944 -107.0500 319° Northwest 440 506 32,000  Level Salt Lake Center
10:27PM 43.1817 -107.1594 318° Northwest 442 509 32,000  Level Salt Lake Center
10:28PM 43.2689 -107.2661 318° Northwest 438 504 32,000  Level Salt Lake Center
10:29PM 43.3703 -107.3936 318° Northwest 440 506 32,000  Level Salt Lake Center
10:30PM 43.4575 -107.5019 318° Northwest 441 507 32,000  Level Salt Lake Center
10:31PM 43.5589 -107.6292 318° Northwest 440 506 32,000 -720 Level Salt Lake Center
10:32PM 43.6469 -107.7411 317° Northwest 447 514 30,600 -2,220 Descending Salt Lake Center
10:33PM 43.7544 -107.8764 318° Northwest 464 534 27,500 -2,880 Descending Salt Lake Center
10:34PM 43.8425 -107.9858 318° Northwest 442 509 24,700 -2,520 Descending Salt Lake Center
10:35PM 43.9222 -108.0914 316° Northwest 421 484 22,400 -2,460 Descending Salt Lake Center
10:36PM 44.0211 -108.2192 317° Northwest 430 495 19,700 -2,400 Descending Salt Lake Center
10:37PM 44.1042 -108.3253 317° Northwest 428 493 17,500 -2,400 Descending Salt Lake Center
10:39PM 44.1956 -108.4433 317° Northwest 415 478 14,800 -2,220 Descending Salt Lake Center
10:40PM 44.2722 -108.5425 317° Northwest 404 465 13,000 -1,680 Descending Salt Lake Center
10:41PM 44.3486 -108.6414 317° Northwest 395 455 11,400 -1,500 Descending Salt Lake Center
10:42PM 44.4353 -108.7539 317° Northwest 389 448 10,000 -720 Descending Salt Lake Center
10:43PM 44.4878 -108.8228 317° Northwest 315 362 10,000  Level Salt Lake Center
10:44PM 44.5353 -108.8856 317° Northwest 244 281 10,000 -720 Level Salt Lake Center
10:45PM 44.5753 -108.9192 329° Northwest 203 234 8,600 -1,320 Descending Salt Lake Center
10:46PM 44.6061 -108.9542 321° Northwest 185 213 7,300 -1,080 Descending Salt Lake Center
10:47PM 44.5639 -108.9686 194° South 170 196 6,500 -1,020 Descending Salt Lake Center
10:48PM 44.5331 -109.0058 221° Southwest 169 194 5,200 -1,260 Descending Salt Lake Center
10:50PM 44.5167 -109.0167 245° Southwest  Level FlightAware Approximate
10:57PM 44.5202 -109.0238 245° Southwest  Level Estimated